Taconite, Minnesota
Current Conditions -  °F | °C
As of 5:15 AM on Wednesday 22 Oct 2014 (Local Time) from KGPZ Reporting Station
Clear Clear  
Wind Chill: 32°   Ceiling: Unl
Heat Index: 39°   Visibility: 10mi
Dew Point: 34°   Wind: 10mph
Humidity: 81%   Direction: 140°SE
Pressure: 30.11"   Gusts: 16mph
Location:  47.31°N, 93.38°W
Report Text: KGPZ 221015Z AUTO 14009G14KT 10SM CLR 04/01 A3011 RMK AO1
Loading
Personal Weather Stations






























Interactive Weather Map
Tropical Storm Tracking
New forecast layout! Learn more

10-Day Weather Forecast

Advertisements
Track Severe Weather on mobile